Time;durP1;ratioP1;P1;durP2;ratioP2;P2;SDS_P1;SDS_P2;PMS_P1;PMS_P2;Temp;Humidity;BMP_temperature;BMP_pressure;BME280_temperature;BME280_humidity;BME280_pressure;Samples;Min_cycle;Max_cycle;Signal;HPM_P1;HPM_P2
2024/02/26 00:02:14;;;;;;;0.10;0.10;;;;;;;6.93;67.97;100345.91;7362000;19;20051;-62
2024/02/26 00:04:40;;;;;;;0.10;0.10;;;;;;;6.78;68.22;100324.50;7366962;19;20378;-62
2024/02/26 00:07:05;;;;;;;0.10;0.10;;;;;;;6.89;68.65;100359.81;7362346;19;20010;-62
2024/02/26 00:09:31;;;;;;;0.10;0.10;;;;;;;6.79;67.94;100353.00;7364420;19;20017;-61
2024/02/26 00:11:57;;;;;;;0.10;0.10;;;;;;;6.85;68.66;100367.69;7366242;19;20609;-62
2024/02/26 00:14:23;;;;;;;0.00;0.00;;;;;;;6.84;68.57;100371.97;7368745;19;20054;-62
2024/02/26 00:16:48;;;;;;;0.10;0.10;;;;;;;6.81;68.49;100371.19;7362860;19;20454;-61
2024/02/26 00:19:14;;;;;;;0.00;0.00;;;;;;;6.84;68.54;100377.16;7352224;19;20018;-62
2024/02/26 00:21:42;;;;;;;0.08;0.08;;;;;;;6.86;68.35;100378.03;7357400;19;20581;-62
2024/02/26 00:24:08;;;;;;;0.00;0.00;;;;;;;6.86;68.49;100379.75;7366752;19;20014;-62
2024/02/26 00:26:33;;;;;;;0.10;0.10;;;;;;;6.87;68.94;100390.13;7363339;19;20090;-61
2024/02/26 00:28:58;;;;;;;0.10;0.10;;;;;;;6.88;68.89;100389.22;7361885;19;20081;-61
2024/02/26 00:31:24;;;;;;;0.10;0.10;;;;;;;6.91;68.83;100401.34;7365790;19;20020;-62
2024/02/26 00:33:49;;;;;;;0.10;0.10;;;;;;;6.91;68.68;100409.13;7354309;19;20843;-62
2024/02/26 00:36:15;;;;;;;0.10;0.10;;;;;;;6.94;69.17;100409.91;7365212;19;20018;-62
2024/02/26 00:38:40;;;;;;;0.10;0.10;;;;;;;6.96;68.84;100412.50;7361266;19;20011;-61
2024/02/26 00:41:06;;;;;;;0.10;0.10;;;;;;;6.96;68.82;100415.97;7364511;19;20011;-61
2024/02/26 00:43:31;;;;;;;0.10;0.10;;;;;;;6.97;68.56;100420.28;7359813;19;20023;-61
2024/02/26 00:45:57;;;;;;;0.05;0.05;;;;;;;6.98;69.11;100427.19;7360546;19;20360;-62
2024/02/26 00:48:22;;;;;;;0.00;0.00;;;;;;;6.98;68.86;100428.91;7365136;19;20074;-62
2024/02/26 00:50:47;;;;;;;0.00;0.00;;;;;;;6.97;68.92;100438.44;7357396;19;20031;-61
2024/02/26 00:53:13;;;;;;;0.10;0.10;;;;;;;6.96;68.33;100441.94;7354514;19;20774;-62
2024/02/26 00:55:38;;;;;;;0.05;0.05;;;;;;;6.95;68.49;100453.19;7362693;19;20517;-61
2024/02/26 00:58:04;;;;;;;0.00;0.00;;;;;;;6.93;68.37;100456.66;7363542;19;20011;-62
2024/02/26 01:00:29;;;;;;;0.08;0.08;;;;;;;6.90;68.68;100465.38;7362876;19;20371;-61
2024/02/26 01:02:55;;;;;;;0.10;0.10;;;;;;;6.87;68.73;100467.97;7363525;19;19999;-62
2024/02/26 01:05:20;;;;;;;0.10;0.10;;;;;;;6.84;68.80;100470.59;7357151;19;20025;-62
2024/02/26 01:07:46;;;;;;;0.10;0.10;;;;;;;6.83;68.79;100479.28;7353810;19;20403;-62
2024/02/26 01:10:11;;;;;;;0.10;0.10;;;;;;;6.82;68.99;100477.56;7365281;19;20111;-61
2024/02/26 01:12:36;;;;;;;0.00;0.00;;;;;;;6.82;68.61;100487.09;7364880;19;20025;-62
2024/02/26 01:15:05;;;;;;;0.10;0.10;;;;;;;6.71;68.61;100484.59;7366882;19;20524;-61
2024/02/26 01:17:30;;;;;;;0.10;0.10;;;;;;;6.71;68.46;100489.78;7364078;19;20623;-61
2024/02/26 01:19:56;;;;;;;0.10;0.10;;;;;;;6.79;68.81;100508.72;7363297;19;20014;-62
2024/02/26 01:22:21;;;;;;;0.10;0.10;;;;;;;6.78;68.95;100512.19;7361743;19;20002;-61
2024/02/26 01:24:47;;;;;;;0.10;0.10;;;;;;;6.76;68.62;100525.19;7366361;19;20057;-62
2024/02/26 01:27:14;;;;;;;0.10;0.10;;;;;;;6.74;69.11;100526.06;7370123;19;20956;-62
2024/02/26 01:29:39;;;;;;;0.00;0.00;;;;;;;6.69;69.23;100527.84;7364847;19;20014;-62
2024/02/26 01:32:05;;;;;;;0.10;0.10;;;;;;;6.70;69.08;100529.59;7369219;19;20999;-61
2024/02/26 01:34:31;;;;;;;0.03;0.03;;;;;;;6.66;68.69;100540.88;7367909;19;20010;-61
2024/02/26 01:36:56;;;;;;;0.00;0.00;;;;;;;6.63;69.02;100546.94;7371495;19;20045;-62
2024/02/26 01:39:22;;;;;;;0.10;0.10;;;;;;;6.55;68.51;100543.56;7370487;19;20085;-62
2024/02/26 01:41:47;;;;;;;0.08;0.08;;;;;;;6.57;68.49;100564.31;7372180;19;20006;-61
2024/02/26 01:44:13;;;;;;;0.10;0.10;;;;;;;6.53;68.57;100557.41;7365467;19;20034;-61
2024/02/26 01:46:39;;;;;;;0.08;0.08;;;;;;;6.48;68.47;100575.59;7371213;19;20013;-61
2024/02/26 01:49:05;;;;;;;0.05;0.05;;;;;;;6.44;68.80;100581.72;7366911;19;20018;-62
2024/02/26 01:51:33;;;;;;;0.10;0.10;;;;;;;6.41;68.53;100590.38;7370548;19;20099;-61
2024/02/26 01:53:59;;;;;;;;;;;;;;;6.39;67.80;100605.09;7368324;19;20112;-62
2024/02/26 01:56:30;;;;;;;0.08;0.08;;;;;;;6.34;68.61;100608.59;7368333;19;19926;-62
2024/02/26 01:58:56;;;;;;;0.00;0.00;;;;;;;6.31;68.73;100612.06;7364215;19;20086;-61
2024/02/26 02:01:25;;;;;;;0.00;0.00;;;;;;;6.20;68.98;100619.03;7367881;19;20478;-62
2024/02/26 02:03:50;;;;;;;0.10;0.10;;;;;;;6.22;68.87;100631.13;7365890;19;20818;-61
2024/02/26 02:06:16;;;;;;;0.10;0.10;;;;;;;6.20;69.22;100632.00;7370956;19;20090;-62
2024/02/26 02:08:42;;;;;;;0.10;0.10;;;;;;;6.17;69.22;100647.56;7367559;19;20018;-61
2024/02/26 02:11:10;;;;;;;0.10;0.10;;;;;;;6.15;68.79;100654.50;7366354;19;20014;-62
2024/02/26 02:13:35;;;;;;;0.10;0.10;;;;;;;6.14;68.84;100652.78;7369218;19;20054;-62
2024/02/26 02:16:00;;;;;;;0.10;0.10;;;;;;;6.11;69.13;100658.84;7369801;19;20015;-62
2024/02/26 02:18:26;;;;;;;0.10;0.10;;;;;;;6.08;69.20;100660.56;7368693;19;20015;-62
2024/02/26 02:20:53;;;;;;;0.10;0.10;;;;;;;6.07;69.20;100661.44;7368598;19;20470;-61
2024/02/26 02:23:19;;;;;;;0.10;0.10;;;;;;;6.05;69.02;100663.19;7367158;19;20018;-61
2024/02/26 02:25:44;;;;;;;0.00;0.00;;;;;;;6.03;69.13;100667.50;7370832;19;20399;-61
2024/02/26 02:28:10;;;;;;;0.00;0.00;;;;;;;5.98;69.43;100668.41;7366179;19;20015;-62
2024/02/26 02:30:36;;;;;;;0.05;0.05;;;;;;;5.97;69.10;100673.59;7369551;19;20010;-61
2024/02/26 02:33:02;;;;;;;0.03;0.03;;;;;;;5.95;69.03;100668.41;7361990;19;20014;-62
2024/02/26 02:35:27;;;;;;;0.00;0.00;;;;;;;5.93;69.34;100679.66;7368348;19;20013;-61
2024/02/26 02:37:53;;;;;;;0.10;0.10;;;;;;;5.90;69.43;100688.28;7364016;19;20996;-61
2024/02/26 02:40:18;;;;;;;0.00;0.00;;;;;;;5.69;68.92;100665.91;7367735;19;20605;-61
2024/02/26 02:42:44;;;;;;;0.10;0.10;;;;;;;5.85;69.07;100700.38;7368212;19;21168;-62
2024/02/26 02:45:09;;;;;;;0.00;0.00;;;;;;;5.83;69.26;100699.53;7369249;19;20002;-61
2024/02/26 02:47:38;;;;;;;0.10;0.10;;;;;;;5.83;68.98;100706.44;7367331;19;20665;-62
2024/02/26 02:50:04;;;;;;;0.08;0.08;;;;;;;5.80;69.21;100719.41;7366844;19;20014;-62
2024/02/26 02:52:29;;;;;;;0.10;0.10;;;;;;;5.78;69.44;100726.31;7367321;19;20014;-61
2024/02/26 02:54:55;;;;;;;0.10;0.10;;;;;;;5.75;69.32;100726.34;7362361;19;20365;-62
2024/02/26 02:57:20;;;;;;;0.10;0.10;;;;;;;5.76;69.46;100739.28;7363115;19;20006;-61
2024/02/26 02:59:46;;;;;;;0.10;0.10;;;;;;;5.64;70.02;100721.19;7364067;19;20007;-61
2024/02/26 03:02:12;;;;;;;0.10;0.10;;;;;;;5.70;69.62;100740.16;7360992;19;20013;-62
2024/02/26 03:04:37;;;;;;;0.03;0.03;;;;;;;5.71;69.32;100747.06;7361593;19;20014;-61
2024/02/26 03:07:03;;;;;;;0.10;0.10;;;;;;;5.69;69.44;100753.13;7365795;19;20026;-61
2024/02/26 03:09:28;;;;;;;0.10;0.10;;;;;;;5.67;69.63;100760.03;7365112;19;20458;-61
2024/02/26 03:11:54;;;;;;;0.00;0.00;;;;;;;5.65;69.40;100762.63;7363789;19;20018;-61
2024/02/26 03:14:19;;;;;;;0.03;0.03;;;;;;;5.64;69.59;100765.22;7364693;19;20090;-62
2024/02/26 03:16:44;;;;;;;0.00;0.00;;;;;;;5.61;69.72;100775.59;7348981;19;20190;-61
2024/02/26 03:19:10;;;;;;;0.10;0.10;;;;;;;5.60;70.06;100774.72;7364546;19;20015;-62
2024/02/26 03:21:35;;;;;;;0.00;0.00;;;;;;;5.58;69.88;100778.19;7357792;19;20018;-62
2024/02/26 03:24:01;;;;;;;0.03;0.03;;;;;;;5.56;70.01;100769.53;7367755;19;20007;-61
2024/02/26 03:26:26;;;;;;;0.10;0.10;;;;;;;5.54;69.90;100779.91;7357612;19;20014;-61
2024/02/26 03:28:52;;;;;;;0.00;0.00;;;;;;;5.52;69.61;100785.94;7364176;19;20418;-62
2024/02/26 03:31:17;;;;;;;0.00;0.00;;;;;;;5.50;69.84;100782.50;7365421;19;20014;-61
2024/02/26 03:33:42;;;;;;;0.10;0.10;;;;;;;5.46;69.74;100782.50;7364586;19;20411;-62
2024/02/26 03:36:08;;;;;;;0.10;0.10;;;;;;;5.44;69.86;100793.75;7365015;19;20017;-61
2024/02/26 03:38:33;;;;;;;0.00;0.00;;;;;;;5.30;69.61;100785.97;7366901;19;20012;-61
2024/02/26 03:40:59;;;;;;;0.00;0.00;;;;;;;5.26;69.39;100789.41;7364800;19;20046;-62
2024/02/26 03:43:24;;;;;;;0.00;0.00;;;;;;;5.35;69.76;100824.81;7366608;19;20014;-62
2024/02/26 03:45:50;;;;;;;0.10;0.10;;;;;;;5.32;69.66;100825.69;7362660;19;20014;-61
2024/02/26 03:48:15;;;;;;;0.10;0.10;;;;;;;5.28;69.50;100826.53;7359570;19;20002;-62
2024/02/26 03:50:41;;;;;;;0.00;0.00;;;;;;;5.27;69.75;100845.53;7359091;19;20038;-62
2024/02/26 03:53:08;;;;;;;0.00;0.00;;;;;;;5.24;69.81;100853.28;7366024;19;20010;-62
2024/02/26 03:55:34;;;;;;;;;;;;;;;5.25;68.76;100854.13;7365224;19;20014;-61
2024/02/26 03:57:59;;;;;;;0.10;0.10;;;;;;;5.21;69.67;100855.84;7363982;19;19990;-61
2024/02/26 04:00:26;;;;;;;0.10;0.10;;;;;;;5.17;69.65;100856.69;7366646;19;20014;-63
2024/02/26 04:02:51;;;;;;;0.00;0.00;;;;;;;5.07;70.15;100847.19;7360271;19;20006;-61
2024/02/26 04:05:17;;;;;;;0.10;0.10;;;;;;;5.15;69.96;100863.59;7362275;19;20499;-62
2024/02/26 04:07:42;;;;;;;0.00;0.00;;;;;;;5.14;69.89;100872.25;7366726;19;20430;-61
2024/02/26 04:10:11;;;;;;;0.10;0.10;;;;;;;5.14;69.86;100872.25;7361981;19;20430;-62
2024/02/26 04:12:41;;;;;;;0.00;0.00;;;;;;;5.13;69.93;100888.63;7365750;19;20069;-62
2024/02/26 04:15:10;;;;;;;0.10;0.10;;;;;;;5.08;70.21;100888.63;7351221;19;20086;-62
2024/02/26 04:17:36;;;;;;;0.10;0.10;;;;;;;5.09;70.12;100890.34;7343113;19;20018;-61
2024/02/26 04:20:02;;;;;;;0.00;0.00;;;;;;;4.96;69.85;100875.63;7361355;19;20084;-62
2024/02/26 04:22:27;;;;;;;0.10;0.10;;;;;;;5.07;70.04;100901.53;7365562;19;20021;-61
2024/02/26 04:24:52;;;;;;;0.10;0.10;;;;;;;5.07;70.27;100906.72;7364450;19;20113;-61
2024/02/26 04:27:18;;;;;;;0.10;0.10;;;;;;;5.01;70.07;100911.88;7360686;19;20771;-61
2024/02/26 04:29:43;;;;;;;0.10;0.10;;;;;;;5.04;70.19;100924.84;7359979;19;20006;-61
2024/02/26 04:32:09;;;;;;;0.10;0.10;;;;;;;5.03;70.04;100931.75;7361288;19;20019;-61
2024/02/26 04:34:34;;;;;;;0.05;0.05;;;;;;;5.02;70.11;100944.66;7367099;19;20506;-61
2024/02/26 04:37:00;;;;;;;0.10;0.10;;;;;;;5.00;70.15;100944.66;7363544;19;20340;-61
2024/02/26 04:39:26;;;;;;;0.03;0.03;;;;;;;4.97;70.25;100947.25;7340867;19;20017;-62
2024/02/26 04:41:51;;;;;;;0.00;0.00;;;;;;;4.97;70.60;100952.44;7359934;19;20022;-62
2024/02/26 04:44:16;;;;;;;0.10;0.10;;;;;;;4.96;70.01;100955.84;7366856;19;20010;-62
2024/02/26 04:46:42;;;;;;;0.00;0.00;;;;;;;4.92;70.17;100955.00;7360784;19;20098;-62
2024/02/26 04:49:07;;;;;;;0.00;0.00;;;;;;;4.93;70.06;100961.03;7362945;19;20015;-61
2024/02/26 04:51:33;;;;;;;0.10;0.10;;;;;;;4.91;70.45;100963.59;7363094;19;20038;-61
2024/02/26 04:53:59;;;;;;;0.10;0.10;;;;;;;4.90;70.31;100972.22;7363758;19;20026;-61
2024/02/26 04:56:25;;;;;;;0.10;0.10;;;;;;;4.88;70.49;100973.94;7367284;19;20081;-62
2024/02/26 04:58:50;;;;;;;0.10;0.10;;;;;;;4.89;70.21;100986.03;7362335;19;20007;-61
2024/02/26 05:01:16;;;;;;;0.08;0.08;;;;;;;4.89;70.54;100991.19;7370601;19;20414;-62
2024/02/26 05:03:42;;;;;;;0.10;0.10;;;;;;;4.87;70.31;100998.09;7371190;19;19998;-61
2024/02/26 05:06:09;;;;;;;0.10;0.10;;;;;;;4.74;70.48;100978.19;7372663;19;20025;-64
2024/02/26 05:08:35;;;;;;;0.10;0.10;;;;;;;4.75;70.47;100979.91;7371039;19;20027;-61
2024/02/26 05:11:02;;;;;;;0.10;0.10;;;;;;;4.76;70.22;100991.97;7368949;19;20686;-61
2024/02/26 05:13:28;;;;;;;0.10;0.10;;;;;;;4.79;70.33;100999.78;7370097;19;20011;-62
2024/02/26 05:15:54;;;;;;;0.10;0.10;;;;;;;4.85;70.40;101020.50;7372190;19;20053;-62
2024/02/26 05:18:19;;;;;;;0.00;0.00;;;;;;;4.76;70.15;101007.50;7367877;19;20065;-62
2024/02/26 05:20:44;;;;;;;0.10;0.10;;;;;;;4.82;70.19;101027.41;7371206;19;20014;-62
2024/02/26 05:23:10;;;;;;;0.10;0.10;;;;;;;4.80;70.27;101040.31;7367437;19;20471;-62
2024/02/26 05:25:35;;;;;;;0.00;0.00;;;;;;;4.79;70.33;101048.94;7372228;19;20013;-61
2024/02/26 05:28:01;;;;;;;0.00;0.00;;;;;;;4.76;70.59;101046.31;7371293;19;20011;-61
2024/02/26 05:30:28;;;;;;;0.10;0.10;;;;;;;4.75;70.66;101047.16;7369968;19;20016;-62
2024/02/26 05:32:53;;;;;;;0.03;0.03;;;;;;;4.72;70.56;101054.06;7364425;19;20781;-62
2024/02/26 05:35:19;;;;;;;0.10;0.10;;;;;;;4.72;70.98;101070.44;7372109;19;20006;-61
2024/02/26 05:37:44;;;;;;;0.10;0.10;;;;;;;4.70;70.59;101077.31;7358348;19;20010;-62
2024/02/26 05:40:10;;;;;;;0.10;0.10;;;;;;;4.69;70.70;101078.19;7369247;19;20018;-61
2024/02/26 05:42:36;;;;;;;0.10;0.10;;;;;;;4.67;70.83;101088.53;7371135;19;20498;-60
2024/02/26 05:45:05;;;;;;;0.05;0.05;;;;;;;4.65;70.74;101089.34;7368399;19;20007;-61
2024/02/26 05:47:33;;;;;;;0.10;0.10;;;;;;;4.63;71.08;101097.09;7370111;19;20320;-61
2024/02/26 05:50:00;;;;;;;0.10;0.10;;;;;;;4.61;71.04;101097.94;7363609;19;20078;-62
2024/02/26 05:52:26;;;;;;;0.10;0.10;;;;;;;4.48;70.75;101088.34;7368859;19;20464;-61
2024/02/26 05:54:51;;;;;;;0.08;0.08;;;;;;;4.50;71.07;101081.47;7367813;19;20070;-62
2024/02/26 05:57:18;;;;;;;0.10;0.10;;;;;;;4.54;71.22;101103.91;7360274;19;20082;-61
2024/02/26 05:59:44;;;;;;;0.03;0.03;;;;;;;4.51;70.68;101098.72;7370546;19;20006;-62
2024/02/26 06:02:09;;;;;;;0.00;0.00;;;;;;;4.49;70.75;101098.72;7370329;19;20041;-61
2024/02/26 06:04:34;;;;;;;0.10;0.10;;;;;;;4.47;71.10;101094.38;7364646;19;20499;-61
2024/02/26 06:07:00;;;;;;;0.00;0.00;;;;;;;4.47;71.15;101099.56;7368065;19;20538;-62
2024/02/26 06:09:25;;;;;;;0.08;0.08;;;;;;;4.46;70.73;101102.97;7362532;19;20010;-62
2024/02/26 06:11:51;;;;;;;0.10;0.10;;;;;;;4.47;70.75;101109.91;7363872;19;20017;-61
2024/02/26 06:14:18;;;;;;;0.10;0.10;;;;;;;4.48;71.08;101121.97;7369474;19;20010;-61
2024/02/26 06:16:44;;;;;;;0.03;0.03;;;;;;;4.42;70.95;101118.47;7366501;19;20620;-61
2024/02/26 06:19:09;;;;;;;0.10;0.10;;;;;;;4.49;70.71;101128.88;7371379;19;20482;-61
2024/02/26 06:21:35;;;;;;;0.10;0.10;;;;;;;4.50;70.67;101139.22;7367631;19;20048;-61
2024/02/26 06:24:01;;;;;;;0.10;0.10;;;;;;;4.50;70.98;101151.28;7367296;19;20066;-62
2024/02/26 06:26:28;;;;;;;0.00;0.00;;;;;;;4.51;70.78;101142.66;7363332;19;20572;-61
2024/02/26 06:28:54;;;;;;;0.00;0.00;;;;;;;4.51;71.33;101142.66;7367677;19;20017;-62
2024/02/26 06:31:22;;;;;;;0.10;0.10;;;;;;;4.50;71.28;101140.94;7362331;19;20018;-60
2024/02/26 06:33:47;;;;;;;0.10;0.10;;;;;;;4.51;71.40;101158.19;7368716;19;20022;-62
2024/02/26 06:36:13;;;;;;;0.10;0.10;;;;;;;4.47;71.36;101149.56;7367464;19;20006;-61
2024/02/26 06:38:38;;;;;;;0.10;0.10;;;;;;;4.50;71.31;101156.47;7366751;19;20022;-61
2024/02/26 06:41:03;;;;;;;0.00;0.00;;;;;;;4.45;71.34;101169.34;7368874;19;20019;-62
2024/02/26 06:43:29;;;;;;;0.03;0.03;;;;;;;4.45;71.23;101168.47;7366090;19;20003;-61
2024/02/26 06:45:54;;;;;;;0.10;0.10;;;;;;;4.40;71.45;101174.47;7362611;19;20010;-62
2024/02/26 06:48:20;;;;;;;0.00;0.00;;;;;;;4.36;71.57;101177.91;7362698;19;20010;-61
2024/02/26 06:50:45;;;;;;;0.10;0.10;;;;;;;4.38;71.22;101183.94;7364924;19;20486;-62
2024/02/26 06:53:10;;;;;;;0.10;0.10;;;;;;;4.35;71.45;101188.19;7366612;19;20021;-61
2024/02/26 06:55:40;;;;;;;0.10;0.10;;;;;;;4.33;71.42;101189.91;7363474;19;20017;-62
2024/02/26 06:58:05;;;;;;;0.10;0.10;;;;;;;4.31;71.54;101196.78;7361384;19;20006;-61
2024/02/26 07:00:31;;;;;;;0.10;0.10;;;;;;;4.25;71.78;101191.53;7367792;19;20006;-61
2024/02/26 07:02:56;;;;;;;0.00;0.00;;;;;;;4.25;71.69;101197.56;7366808;19;20006;-61
2024/02/26 07:05:21;;;;;;;0.10;0.10;;;;;;;4.21;71.75;101190.66;7369928;19;20090;-61
2024/02/26 07:07:47;;;;;;;0.10;0.10;;;;;;;4.11;71.51;101187.09;7342637;19;20015;-62
2024/02/26 07:10:12;;;;;;;0.10;0.10;;;;;;;4.16;71.59;101200.09;7364273;19;20038;-61
2024/02/26 07:12:38;;;;;;;0.00;0.00;;;;;;;4.12;71.73;101206.06;7366629;19;20045;-62
2024/02/26 07:15:06;;;;;;;0.10;0.10;;;;;;;4.09;71.83;101206.00;7365892;19;20023;-62
2024/02/26 07:17:33;;;;;;;0.10;0.10;;;;;;;4.05;71.71;101214.56;7366964;19;20010;-62
2024/02/26 07:19:59;;;;;;;0.00;0.00;;;;;;;4.04;71.80;101220.59;7366752;19;20035;-61
2024/02/26 07:22:24;;;;;;;0.10;0.10;;;;;;;4.02;71.86;101220.59;7364685;19;20010;-61
2024/02/26 07:24:50;;;;;;;0.00;0.00;;;;;;;4.01;72.00;101218.00;7364277;19;20010;-61
2024/02/26 07:27:17;;;;;;;0.00;0.00;;;;;;;3.98;72.21;101228.28;7367491;19;20010;-60
2024/02/26 07:29:43;;;;;;;0.10;0.10;;;;;;;3.96;72.22;101230.00;7362081;19;20070;-62
2024/02/26 07:32:08;;;;;;;0.00;0.00;;;;;;;3.78;71.98;101209.94;7350137;19;20102;-61
2024/02/26 07:34:34;;;;;;;0.10;0.10;;;;;;;3.76;72.08;101217.66;7370822;19;20340;-61
2024/02/26 07:36:59;;;;;;;0.10;0.10;;;;;;;3.90;72.22;101251.41;7366800;19;20014;-61
2024/02/26 07:39:25;;;;;;;0.10;0.10;;;;;;;3.87;71.84;101253.97;7368447;19;20006;-61
2024/02/26 07:41:52;;;;;;;0.10;0.10;;;;;;;3.85;72.19;101253.06;7365923;19;20018;-61
2024/02/26 07:44:18;;;;;;;0.00;0.00;;;;;;;3.84;71.84;101267.72;7363468;19;20872;-61
2024/02/26 07:46:43;;;;;;;0.00;0.00;;;;;;;3.82;72.15;101269.41;7361719;19;20066;-61
2024/02/26 07:49:09;;;;;;;0.00;0.00;;;;;;;3.78;71.80;101267.63;7364460;19;20014;-61
2024/02/26 07:51:34;;;;;;;0.10;0.10;;;;;;;3.80;72.07;101276.28;7364139;19;20019;-62
2024/02/26 07:54:00;;;;;;;0.00;0.00;;;;;;;3.61;72.03;101248.44;7360347;19;20017;-61
2024/02/26 07:56:26;;;;;;;0.10;0.10;;;;;;;3.82;72.19;101284.03;7364068;19;20010;-61
2024/02/26 07:58:51;;;;;;;0.10;0.10;;;;;;;3.82;72.12;101289.22;7362055;19;20010;-61
2024/02/26 08:01:17;;;;;;;0.10;0.10;;;;;;;3.76;72.43;101283.97;7359997;19;20485;-62
2024/02/26 08:03:42;;;;;;;0.10;0.10;;;;;;;3.75;72.06;101283.09;7365773;19;20337;-62
2024/02/26 08:06:08;;;;;;;0.00;0.00;;;;;;;3.80;72.06;101291.78;7365566;19;20056;-62
2024/02/26 08:08:34;;;;;;;0.00;0.00;;;;;;;3.83;71.89;101299.56;7366210;19;20580;-62
2024/02/26 08:10:59;;;;;;;0.00;0.00;;;;;;;3.82;71.92;101305.56;7363284;19;20023;-61
2024/02/26 08:13:26;;;;;;;0.10;0.10;;;;;;;3.69;71.99;101285.56;7366171;19;20021;-61
2024/02/26 08:15:51;;;;;;;0.10;0.10;;;;;;;3.87;72.36;101316.84;7360438;19;20553;-61
2024/02/26 08:18:17;;;;;;;0.10;0.10;;;;;;;3.88;72.44;101326.31;7362584;19;20018;-61
2024/02/26 08:20:42;;;;;;;0.10;0.10;;;;;;;3.90;72.27;101323.75;7361349;19;20541;-61
2024/02/26 08:23:08;;;;;;;0.00;0.00;;;;;;;3.94;72.01;101329.84;7361307;19;20002;-61
2024/02/26 08:25:33;;;;;;;0.10;0.10;;;;;;;3.98;72.12;101331.63;7366363;19;20074;-61
2024/02/26 08:27:59;;;;;;;0.00;0.00;;;;;;;4.02;71.96;101338.59;7361543;19;20025;-61
2024/02/26 08:30:24;;;;;;;0.00;0.00;;;;;;;4.07;71.93;101342.09;7361730;19;20023;-61
2024/02/26 08:32:50;;;;;;;0.00;0.00;;;;;;;4.16;71.96;101339.66;7357499;19;20726;-62
2024/02/26 08:35:15;;;;;;;0.08;0.08;;;;;;;4.16;71.90;101319.84;7364358;19;20337;-61
2024/02/26 08:37:44;;;;;;;0.10;0.10;;;;;;;4.47;71.96;101347.81;7348544;19;20013;-62
2024/02/26 08:40:10;;;;;;;0.10;0.10;;;;;;;4.67;71.97;101352.38;7348461;19;20044;-63
2024/02/26 08:42:35;;;;;;;0.10;0.10;;;;;;;4.90;71.98;101362.97;7362654;19;20015;-61
2024/02/26 08:45:02;;;;;;;0.10;0.10;;;;;;;5.14;72.10;101374.47;7359060;19;20378;-61
2024/02/26 08:47:28;;;;;;;0.10;0.10;;;;;;;5.37;72.07;101372.06;7363921;19;20033;-61
2024/02/26 08:49:53;;;;;;;0.00;0.00;;;;;;;5.60;71.93;101383.53;7356755;19;20565;-61
2024/02/26 08:52:19;;;;;;;0.10;0.10;;;;;;;5.82;71.61;101392.31;7362548;19;20007;-63
2024/02/26 08:54:44;;;;;;;0.10;0.10;;;;;;;6.06;71.61;101396.00;7366206;19;20021;-62
2024/02/26 08:57:10;;;;;;;0.10;0.10;;;;;;;6.27;71.20;101401.31;7360720;19;20014;-61
2024/02/26 08:59:35;;;;;;;0.00;0.00;;;;;;;6.49;71.46;101412.72;7366473;19;20007;-62
2024/02/26 09:02:01;;;;;;;0.10;0.10;;;;;;;6.71;71.01;101418.88;7361040;19;20037;-62
2024/02/26 09:04:27;;;;;;;0.00;0.00;;;;;;;6.93;70.52;101420.69;7361935;19;20719;-62
2024/02/26 09:06:52;;;;;;;0.10;0.10;;;;;;;7.16;70.70;101417.31;7364700;19;20374;-62
2024/02/26 09:09:18;;;;;;;0.10;0.10;;;;;;;7.38;70.45;101421.69;7363566;19;20017;-62
2024/02/26 09:11:43;;;;;;;0.10;0.10;;;;;;;7.60;69.93;101413.91;7363000;19;20010;-62
2024/02/26 09:14:09;;;;;;;0.00;0.00;;;;;;;7.81;70.04;101413.94;7364000;19;20011;-62
2024/02/26 09:16:34;;;;;;;0.00;0.00;;;;;;;8.01;69.46;101417.41;7359586;19;20006;-65
2024/02/26 09:19:00;;;;;;;0.10;0.10;;;;;;;8.24;69.92;101412.16;7363641;19;20014;-63
2024/02/26 09:21:26;;;;;;;0.10;0.10;;;;;;;8.44;69.33;101417.34;7358256;19;20069;-64
2024/02/26 09:23:52;;;;;;;0.10;0.10;;;;;;;8.58;68.74;101413.00;7361382;19;20049;-62
2024/02/26 09:26:17;;;;;;;0.20;0.20;;;;;;;8.82;68.43;101426.81;7360479;19;20011;-62
2024/02/26 09:28:43;;;;;;;0.10;0.10;;;;;;;8.99;68.50;101419.78;7362034;19;20025;-63
2024/02/26 09:31:09;;;;;;;0.10;0.10;;;;;;;9.18;68.06;101424.91;7346525;19;20014;-62
2024/02/26 09:33:35;;;;;;;0.10;0.10;;;;;;;9.35;67.98;101436.09;7364945;19;20018;-62
2024/02/26 09:36:00;;;;;;;0.10;0.10;;;;;;;9.41;67.88;101420.41;7361407;19;20014;-62
2024/02/26 09:38:26;;;;;;;0.10;0.10;;;;;;;9.66;67.53;101446.31;7362133;19;20106;-62
2024/02/26 09:40:52;;;;;;;0.10;0.10;;;;;;;9.75;67.06;101451.47;7361218;19;20017;-63
2024/02/26 09:43:23;;;;;;;0.10;0.10;;;;;;;9.89;67.14;101457.47;7363196;19;20010;-62
2024/02/26 09:45:51;;;;;;;0.10;0.10;;;;;;;9.86;66.98;101434.00;7362333;19;20024;-62
2024/02/26 09:48:17;;;;;;;0.10;0.10;;;;;;;10.08;66.66;101471.19;7368215;19;20494;-63
2024/02/26 09:50:43;;;;;;;0.10;0.10;;;;;;;10.21;66.21;101471.97;7364789;19;20013;-63
2024/02/26 09:53:11;;;;;;;0.10;0.10;;;;;;;10.27;66.19;101456.28;7367439;19;20595;-63
2024/02/26 09:55:36;;;;;;;0.10;0.10;;;;;;;10.50;65.97;101462.16;7369198;19;20006;-63
2024/02/26 09:58:05;;;;;;;0.10;0.10;;;;;;;10.71;65.81;101468.03;7370660;19;20034;-62
2024/02/26 10:00:34;;;;;;;0.10;0.10;;;;;;;10.85;65.19;101466.13;7368636;19;20011;-62
2024/02/26 10:03:04;;;;;;;0.10;0.10;;;;;;;11.05;65.15;101458.91;7369289;19;20015;-63
2024/02/26 10:05:31;;;;;;;0.10;0.10;;;;;;;11.15;64.91;101465.75;7370457;19;20066;-62
2024/02/26 10:07:58;;;;;;;0.10;0.10;;;;;;;11.18;64.60;101439.56;7370948;19;20042;-63
2024/02/26 10:10:23;;;;;;;0.10;0.10;;;;;;;11.23;63.78;101428.19;7363291;19;20033;-63
2024/02/26 10:12:49;;;;;;;0.17;0.17;;;;;;;11.44;64.24;101446.19;7367181;19;20014;-62
2024/02/26 10:15:15;;;;;;;0.10;0.10;;;;;;;11.54;63.76;101441.69;7358723;19;20085;-62
2024/02/26 10:17:41;;;;;;;0.10;0.10;;;;;;;11.65;63.62;101439.75;7367767;19;20027;-62
2024/02/26 10:20:15;;;;;;;0.10;0.10;;;;;;;11.88;64.34;101442.06;7364844;19;20524;-63
2024/02/26 10:22:41;;;;;;;0.10;0.10;;;;;;;12.01;63.28;101443.56;7362811;19;21774;-62
2024/02/26 10:25:07;;;;;;;0.00;0.00;;;;;;;12.25;62.58;101446.66;7365508;19;20082;-62
2024/02/26 10:27:34;;;;;;;0.10;0.10;;;;;;;12.50;62.41;101447.94;7370907;19;20494;-62
2024/02/26 10:30:21;;;;;;;0.10;0.10;;;;;;;12.80;62.74;101440.41;7364052;19;20011;-63
2024/02/26 10:32:47;;;;;;;0.10;0.10;;;;;;;13.06;61.45;101440.72;7363567;19;20014;-63
2024/02/26 10:35:14;;;;;;;0.13;0.13;;;;;;;13.29;61.52;101423.66;7363859;19;20003;-63
2024/02/26 10:37:41;;;;;;;0.10;0.10;;;;;;;13.56;60.62;101433.53;7369236;19;20588;-63
2024/02/26 10:40:10;;;;;;;0.10;0.10;;;;;;;13.95;60.95;101441.34;7360655;19;20045;-63
2024/02/26 10:42:36;;;;;;;0.20;0.20;;;;;;;14.16;59.59;101440.81;7368585;19;20006;-63
2024/02/26 10:45:02;;;;;;;0.10;0.10;;;;;;;14.44;59.41;101447.94;7364345;19;20006;-63
2024/02/26 10:47:29;;;;;;;0.10;0.10;;;;;;;14.72;59.12;101448.09;7366583;19;20021;-63
2024/02/26 10:49:55;;;;;;;0.20;0.20;;;;;;;15.00;58.30;101441.16;7357858;19;20022;-63
2024/02/26 10:52:25;;;;;;;0.10;0.10;;;;;;;15.36;58.45;101447.97;7365370;19;20465;-63
2024/02/26 10:54:57;;;;;;;0.10;0.10;;;;;;;15.62;57.73;101449.81;7358599;19;20022;-63
2024/02/26 10:57:24;;;;;;;0.10;0.10;;;;;;;15.86;57.03;101458.72;7350829;19;20446;-63
2024/02/26 10:59:51;;;;;;;0.17;0.17;;;;;;;16.09;56.74;101466.72;7364809;19;20010;-64
2024/02/26 11:02:17;;;;;;;;;;;;;;;16.42;62.46;101475.25;7366001;19;20446;-63
2024/02/26 11:04:43;;;;;;;0.17;0.17;;;;;;;16.42;56.38;101480.53;7362793;19;20329;-63
2024/02/26 11:07:10;;;;;;;0.20;0.20;;;;;;;16.58;55.96;101478.25;7360035;19;21313;-63
2024/02/26 11:09:41;;;;;;;0.10;0.10;;;;;;;16.77;56.01;101476.69;7357426;19;20015;-64
2024/02/26 11:12:11;;;;;;;0.10;0.10;;;;;;;17.07;53.97;101489.66;7360835;19;20077;-64
2024/02/26 11:14:38;;;;;;;0.10;0.10;;;;;;;17.30;54.79;101491.47;7365136;19;20109;-63
2024/02/26 11:17:05;;;;;;;0.10;0.10;;;;;;;17.50;53.56;101490.69;7362364;19;20014;-63
2024/02/26 11:19:35;;;;;;;0.10;0.10;;;;;;;17.88;54.39;101500.63;7359099;19;20013;-64
2024/02/26 11:22:01;;;;;;;0.17;0.17;;;;;;;18.03;52.15;101498.28;7360574;19;20468;-63
2024/02/26 11:24:27;;;;;;;0.20;0.20;;;;;;;18.26;51.62;101508.78;7356092;19;20006;-64
2024/02/26 11:27:00;;;;;;;0.10;0.10;;;;;;;18.45;51.72;101500.03;7363050;19;20086;-63
2024/02/26 11:29:35;;;;;;;0.10;0.10;;;;;;;18.66;51.64;101502.66;7362909;19;20017;-63